sensor_id;sensor_type;location;lat;lon;timestamp;temperature;humidity
70300;HTU21D;57704;51.112;5.878;2023-04-24T00:00:31;11.05;74.11
70300;HTU21D;57704;51.112;5.878;2023-04-24T00:02:57;11.04;73.96
70300;HTU21D;57704;51.112;5.878;2023-04-24T00:05:24;11.00;74.23
70300;HTU21D;57704;51.112;5.878;2023-04-24T00:07:50;11.01;74.27
70300;HTU21D;57704;51.112;5.878;2023-04-24T00:10:19;11.05;73.94
70300;HTU21D;57704;51.112;5.878;2023-04-24T00:12:45;11.02;74.05
70300;HTU21D;57704;51.112;5.878;2023-04-24T00:15:12;11.02;73.99
70300;HTU21D;57704;51.112;5.878;2023-04-24T00:17:38;11.02;73.82
70300;HTU21D;57704;51.112;5.878;2023-04-24T00:20:05;10.98;74.08
70300;HTU21D;57704;51.112;5.878;2023-04-24T00:22:33;10.94;74.18
70300;HTU21D;57704;51.112;5.878;2023-04-24T00:24:59;10.95;74.35
70300;HTU21D;57704;51.112;5.878;2023-04-24T00:27:26;10.98;74.31
70300;HTU21D;57704;51.112;5.878;2023-04-24T00:29:52;11.01;74.19
70300;HTU21D;57704;51.112;5.878;2023-04-24T00:32:19;11.02;74.25
70300;HTU21D;57704;51.112;5.878;2023-04-24T00:34:46;11.10;73.92
70300;HTU21D;57704;51.112;5.878;2023-04-24T00:37:12;11.03;73.90
70300;HTU21D;57704;51.112;5.878;2023-04-24T00:39:38;11.07;73.75
70300;HTU21D;57704;51.112;5.878;2023-04-24T00:42:05;10.98;74.00
70300;HTU21D;57704;51.112;5.878;2023-04-24T00:44:33;10.96;73.95
70300;HTU21D;57704;51.112;5.878;2023-04-24T00:47:01;10.98;74.01
70300;HTU21D;57704;51.112;5.878;2023-04-24T00:49:27;10.97;74.12
70300;HTU21D;57704;51.112;5.878;2023-04-24T00:51:53;10.93;74.30
70300;HTU21D;57704;51.112;5.878;2023-04-24T00:54:20;10.94;74.17
70300;HTU21D;57704;51.112;5.878;2023-04-24T00:56:47;10.93;74.38
70300;HTU21D;57704;51.112;5.878;2023-04-24T00:59:16;10.94;74.35
70300;HTU21D;57704;51.112;5.878;2023-04-24T01:01:44;10.92;74.44
70300;HTU21D;57704;51.112;5.878;2023-04-24T01:04:12;10.90;74.51
70300;HTU21D;57704;51.112;5.878;2023-04-24T01:06:44;10.95;74.26
70300;HTU21D;57704;51.112;5.878;2023-04-24T01:09:15;10.92;74.35
70300;HTU21D;57704;51.112;5.878;2023-04-24T01:11:42;10.93;74.26
70300;HTU21D;57704;51.112;5.878;2023-04-24T01:14:09;10.92;74.38
70300;HTU21D;57704;51.112;5.878;2023-04-24T01:16:35;10.99;73.99
70300;HTU21D;57704;51.112;5.878;2023-04-24T01:19:06;10.94;74.13
70300;HTU21D;57704;51.112;5.878;2023-04-24T01:21:36;10.95;74.19
70300;HTU21D;57704;51.112;5.878;2023-04-24T01:24:06;10.90;73.90
70300;HTU21D;57704;51.112;5.878;2023-04-24T01:26:33;10.93;74.29
70300;HTU21D;57704;51.112;5.878;2023-04-24T01:28:59;10.96;74.31
70300;HTU21D;57704;51.112;5.878;2023-04-24T01:31:26;10.97;74.34
70300;HTU21D;57704;51.112;5.878;2023-04-24T01:33:52;11.01;74.32
70300;HTU21D;57704;51.112;5.878;2023-04-24T01:36:21;11.11;74.04
70300;HTU21D;57704;51.112;5.878;2023-04-24T01:38:47;11.10;73.89
70300;HTU21D;57704;51.112;5.878;2023-04-24T01:41:13;11.05;74.15
70300;HTU21D;57704;51.112;5.878;2023-04-24T01:43:39;11.03;74.15
70300;HTU21D;57704;51.112;5.878;2023-04-24T01:46:06;11.02;74.09
70300;HTU21D;57704;51.112;5.878;2023-04-24T01:48:35;10.97;74.33
70300;HTU21D;57704;51.112;5.878;2023-04-24T01:51:02;11.00;74.42
70300;HTU21D;57704;51.112;5.878;2023-04-24T01:53:29;11.07;74.12
70300;HTU21D;57704;51.112;5.878;2023-04-24T01:55:55;11.04;74.01
70300;HTU21D;57704;51.112;5.878;2023-04-24T01:58:25;11.00;74.37
70300;HTU21D;57704;51.112;5.878;2023-04-24T02:00:51;10.97;74.44
70300;HTU21D;57704;51.112;5.878;2023-04-24T02:03:17;10.98;74.51
70300;HTU21D;57704;51.112;5.878;2023-04-24T02:05:44;11.01;74.33
70300;HTU21D;57704;51.112;5.878;2023-04-24T02:08:11;11.00;74.32
70300;HTU21D;57704;51.112;5.878;2023-04-24T02:10:37;10.98;74.37
70300;HTU21D;57704;51.112;5.878;2023-04-24T02:13:04;10.93;74.53
70300;HTU21D;57704;51.112;5.878;2023-04-24T02:15:30;10.94;74.52
70300;HTU21D;57704;51.112;5.878;2023-04-24T02:17:56;10.99;74.50
70300;HTU21D;57704;51.112;5.878;2023-04-24T02:20:23;10.96;74.39
70300;HTU21D;57704;51.112;5.878;2023-04-24T02:22:49;10.97;74.32
70300;HTU21D;57704;51.112;5.878;2023-04-24T02:25:16;10.97;74.45
70300;HTU21D;57704;51.112;5.878;2023-04-24T02:27:42;10.99;74.38
70300;HTU21D;57704;51.112;5.878;2023-04-24T02:30:08;10.98;74.30
70300;HTU21D;57704;51.112;5.878;2023-04-24T02:32:35;11.00;74.32
70300;HTU21D;57704;51.112;5.878;2023-04-24T02:35:01;11.01;74.28
70300;HTU21D;57704;51.112;5.878;2023-04-24T02:37:27;11.01;74.20
70300;HTU21D;57704;51.112;5.878;2023-04-24T02:39:53;11.03;73.86
70300;HTU21D;57704;51.112;5.878;2023-04-24T02:42:19;10.93;74.35
70300;HTU21D;57704;51.112;5.878;2023-04-24T02:44:45;10.88;74.44
70300;HTU21D;57704;51.112;5.878;2023-04-24T02:47:12;10.88;74.51
70300;HTU21D;57704;51.112;5.878;2023-04-24T02:49:38;10.89;74.42
70300;HTU21D;57704;51.112;5.878;2023-04-24T02:52:04;10.90;74.51
70300;HTU21D;57704;51.112;5.878;2023-04-24T02:54:30;10.96;74.56
70300;HTU21D;57704;51.112;5.878;2023-04-24T02:56:56;10.88;74.73
70300;HTU21D;57704;51.112;5.878;2023-04-24T02:59:23;10.84;74.88
70300;HTU21D;57704;51.112;5.878;2023-04-24T03:01:49;10.84;74.80
70300;HTU21D;57704;51.112;5.878;2023-04-24T03:04:15;10.86;74.54
70300;HTU21D;57704;51.112;5.878;2023-04-24T03:06:42;10.81;74.78
70300;HTU21D;57704;51.112;5.878;2023-04-24T03:09:08;10.80;74.94
70300;HTU21D;57704;51.112;5.878;2023-04-24T03:11:34;10.74;74.91
70300;HTU21D;57704;51.112;5.878;2023-04-24T03:14:00;10.73;75.12
70300;HTU21D;57704;51.112;5.878;2023-04-24T03:16:26;10.72;75.01
70300;HTU21D;57704;51.112;5.878;2023-04-24T03:18:54;10.71;75.12
70300;HTU21D;57704;51.112;5.878;2023-04-24T03:21:22;10.73;75.03
70300;HTU21D;57704;51.112;5.878;2023-04-24T03:23:49;10.77;74.83
70300;HTU21D;57704;51.112;5.878;2023-04-24T03:26:15;10.81;74.54
70300;HTU21D;57704;51.112;5.878;2023-04-24T03:28:52;10.72;74.67
70300;HTU21D;57704;51.112;5.878;2023-04-24T03:31:19;10.72;74.79
70300;HTU21D;57704;51.112;5.878;2023-04-24T03:33:47;10.75;74.50
70300;HTU21D;57704;51.112;5.878;2023-04-24T03:36:13;10.69;74.54
70300;HTU21D;57704;51.112;5.878;2023-04-24T03:38:40;10.69;74.69
70300;HTU21D;57704;51.112;5.878;2023-04-24T03:41:26;10.67;74.64
70300;HTU21D;57704;51.112;5.878;2023-04-24T03:44:01;10.67;74.73
70300;HTU21D;57704;51.112;5.878;2023-04-24T03:46:27;10.67;74.74
70300;HTU21D;57704;51.112;5.878;2023-04-24T03:48:57;10.65;74.76
70300;HTU21D;57704;51.112;5.878;2023-04-24T03:51:28;10.65;74.96
70300;HTU21D;57704;51.112;5.878;2023-04-24T03:54:02;10.68;74.84
70300;HTU21D;57704;51.112;5.878;2023-04-24T03:56:30;10.67;74.92
70300;HTU21D;57704;51.112;5.878;2023-04-24T03:58:57;10.55;75.47
70300;HTU21D;57704;51.112;5.878;2023-04-24T04:01:23;10.43;76.34
70300;HTU21D;57704;51.112;5.878;2023-04-24T04:04:00;10.28;76.74
70300;HTU21D;57704;51.112;5.878;2023-04-24T04:06:27;10.21;77.11
70300;HTU21D;57704;51.112;5.878;2023-04-24T04:08:57;10.12;77.84
70300;HTU21D;57704;51.112;5.878;2023-04-24T04:11:23;10.11;77.97
70300;HTU21D;57704;51.112;5.878;2023-04-24T04:13:50;10.09;78.24
70300;HTU21D;57704;51.112;5.878;2023-04-24T04:16:19;10.07;78.45
70300;HTU21D;57704;51.112;5.878;2023-04-24T04:18:47;10.03;78.92
70300;HTU21D;57704;51.112;5.878;2023-04-24T04:21:13;10.05;79.29
70300;HTU21D;57704;51.112;5.878;2023-04-24T04:23:39;10.05;78.91
70300;HTU21D;57704;51.112;5.878;2023-04-24T04:26:19;9.92;79.49
70300;HTU21D;57704;51.112;5.878;2023-04-24T04:29:04;9.88;79.77
70300;HTU21D;57704;51.112;5.878;2023-04-24T04:31:31;9.86;79.82
70300;HTU21D;57704;51.112;5.878;2023-04-24T04:34:01;9.82;79.88
70300;HTU21D;57704;51.112;5.878;2023-04-24T04:36:30;9.88;79.88
70300;HTU21D;57704;51.112;5.878;2023-04-24T04:39:03;9.90;79.82
70300;HTU21D;57704;51.112;5.878;2023-04-24T04:41:54;9.84;79.95
70300;HTU21D;57704;51.112;5.878;2023-04-24T04:44:23;9.90;79.71
70300;HTU21D;57704;51.112;5.878;2023-04-24T04:46:50;9.90;79.65
70300;HTU21D;57704;51.112;5.878;2023-04-24T04:49:25;9.94;79.60
70300;HTU21D;57704;51.112;5.878;2023-04-24T04:51:54;9.97;79.46
70300;HTU21D;57704;51.112;5.878;2023-04-24T04:54:23;9.97;79.85
70300;HTU21D;57704;51.112;5.878;2023-04-24T04:56:51;10.00;79.67
70300;HTU21D;57704;51.112;5.878;2023-04-24T04:59:18;9.95;80.27
70300;HTU21D;57704;51.112;5.878;2023-04-24T05:01:46;9.94;80.17
70300;HTU21D;57704;51.112;5.878;2023-04-24T05:04:15;9.91;80.51
70300;HTU21D;57704;51.112;5.878;2023-04-24T05:06:44;9.91;80.25
70300;HTU21D;57704;51.112;5.878;2023-04-24T05:09:12;9.86;80.49
70300;HTU21D;57704;51.112;5.878;2023-04-24T05:11:56;9.80;80.74
70300;HTU21D;57704;51.112;5.878;2023-04-24T05:14:56;9.69;81.58
70300;HTU21D;57704;51.112;5.878;2023-04-24T05:17:42;9.64;81.59
70300;HTU21D;57704;51.112;5.878;2023-04-24T05:21:12;9.55;81.98
70300;HTU21D;57704;51.112;5.878;2023-04-24T05:23:53;9.48;82.30
70300;HTU21D;57704;51.112;5.878;2023-04-24T05:26:58;9.46;83.24
70300;HTU21D;57704;51.112;5.878;2023-04-24T05:29:57;9.46;82.94
70300;HTU21D;57704;51.112;5.878;2023-04-24T05:32:41;9.41;83.12
70300;HTU21D;57704;51.112;5.878;2023-04-24T05:35:07;9.37;83.25
70300;HTU21D;57704;51.112;5.878;2023-04-24T05:37:38;9.41;83.52
70300;HTU21D;57704;51.112;5.878;2023-04-24T05:40:26;9.42;83.52
70300;HTU21D;57704;51.112;5.878;2023-04-24T05:43:03;9.44;83.45
70300;HTU21D;57704;51.112;5.878;2023-04-24T05:45:31;9.46;83.49
70300;HTU21D;57704;51.112;5.878;2023-04-24T05:47:58;9.44;84.48
70300;HTU21D;57704;51.112;5.878;2023-04-24T05:50:28;9.42;83.88
70300;HTU21D;57704;51.112;5.878;2023-04-24T05:52:57;9.45;83.97
70300;HTU21D;57704;51.112;5.878;2023-04-24T05:55:31;9.46;84.10
70300;HTU21D;57704;51.112;5.878;2023-04-24T05:58:01;9.41;84.10
70300;HTU21D;57704;51.112;5.878;2023-04-24T06:00:29;9.40;84.26
70300;HTU21D;57704;51.112;5.878;2023-04-24T06:03:10;9.41;83.97
70300;HTU21D;57704;51.112;5.878;2023-04-24T06:05:40;9.39;84.38
70300;HTU21D;57704;51.112;5.878;2023-04-24T06:08:13;9.38;84.32
70300;HTU21D;57704;51.112;5.878;2023-04-24T06:11:08;9.37;84.46
70300;HTU21D;57704;51.112;5.878;2023-04-24T06:13:39;9.37;84.46
70300;HTU21D;57704;51.112;5.878;2023-04-24T06:16:53;9.38;84.42
70300;HTU21D;57704;51.112;5.878;2023-04-24T06:19:43;9.31;84.41
70300;HTU21D;57704;51.112;5.878;2023-04-24T06:22:28;9.31;84.42
70300;HTU21D;57704;51.112;5.878;2023-04-24T06:25:58;9.22;84.71
70300;HTU21D;57704;51.112;5.878;2023-04-24T06:29:07;9.26;84.96
70300;HTU21D;57704;51.112;5.878;2023-04-24T06:32:07;9.31;85.01
70300;HTU21D;57704;51.112;5.878;2023-04-24T06:34:39;9.38;84.17
70300;HTU21D;57704;51.112;5.878;2023-04-24T06:37:15;9.21;84.10
70300;HTU21D;57704;51.112;5.878;2023-04-24T06:40:09;9.11;84.00
70300;HTU21D;57704;51.112;5.878;2023-04-24T06:43:31;9.04;84.08
70300;HTU21D;57704;51.112;5.878;2023-04-24T06:46:35;8.94;83.93
70300;HTU21D;57704;51.112;5.878;2023-04-24T06:49:13;8.87;84.59
70300;HTU21D;57704;51.112;5.878;2023-04-24T06:52:07;8.82;83.94
70300;HTU21D;57704;51.112;5.878;2023-04-24T06:55:22;8.70;84.33
70300;HTU21D;57704;51.112;5.878;2023-04-24T06:59:21;8.66;84.29
70300;HTU21D;57704;51.112;5.878;2023-04-24T07:01:54;8.61;84.28
70300;HTU21D;57704;51.112;5.878;2023-04-24T07:04:21;8.58;84.72
70300;HTU21D;57704;51.112;5.878;2023-04-24T07:06:48;8.65;84.62
70300;HTU21D;57704;51.112;5.878;2023-04-24T07:09:17;8.63;84.69
70300;HTU21D;57704;51.112;5.878;2023-04-24T07:11:45;8.64;84.84
70300;HTU21D;57704;51.112;5.878;2023-04-24T07:14:12;8.64;85.45
70300;HTU21D;57704;51.112;5.878;2023-04-24T07:16:38;8.67;85.28
70300;HTU21D;57704;51.112;5.878;2023-04-24T07:19:05;8.68;85.51
70300;HTU21D;57704;51.112;5.878;2023-04-24T07:21:32;8.73;85.45
70300;HTU21D;57704;51.112;5.878;2023-04-24T07:23:58;8.75;85.51
70300;HTU21D;57704;51.112;5.878;2023-04-24T07:26:26;8.71;85.42
70300;HTU21D;57704;51.112;5.878;2023-04-24T07:28:53;8.65;85.51
70300;HTU21D;57704;51.112;5.878;2023-04-24T07:31:19;8.63;85.98
70300;HTU21D;57704;51.112;5.878;2023-04-24T07:33:45;8.63;85.64
70300;HTU21D;57704;51.112;5.878;2023-04-24T07:36:12;8.64;85.88
70300;HTU21D;57704;51.112;5.878;2023-04-24T07:38:42;8.63;85.64
70300;HTU21D;57704;51.112;5.878;2023-04-24T07:41:08;8.71;85.55
70300;HTU21D;57704;51.112;5.878;2023-04-24T07:43:35;8.71;85.26
70300;HTU21D;57704;51.112;5.878;2023-04-24T07:46:01;8.61;85.57
70300;HTU21D;57704;51.112;5.878;2023-04-24T07:48:28;8.64;85.71
70300;HTU21D;57704;51.112;5.878;2023-04-24T07:50:57;8.66;85.65
70300;HTU21D;57704;51.112;5.878;2023-04-24T07:53:23;8.66;85.80
70300;HTU21D;57704;51.112;5.878;2023-04-24T07:55:49;8.65;85.45
70300;HTU21D;57704;51.112;5.878;2023-04-24T07:58:17;8.64;85.82
70300;HTU21D;57704;51.112;5.878;2023-04-24T08:00:43;8.70;85.22
70300;HTU21D;57704;51.112;5.878;2023-04-24T08:03:09;8.67;85.30
70300;HTU21D;57704;51.112;5.878;2023-04-24T08:05:35;8.67;85.48
70300;HTU21D;57704;51.112;5.878;2023-04-24T08:08:02;8.70;85.60
70300;HTU21D;57704;51.112;5.878;2023-04-24T08:10:28;8.72;85.74
70300;HTU21D;57704;51.112;5.878;2023-04-24T08:12:54;8.77;85.78
70300;HTU21D;57704;51.112;5.878;2023-04-24T08:15:21;8.79;85.87
70300;HTU21D;57704;51.112;5.878;2023-04-24T08:17:47;8.80;85.74
70300;HTU21D;57704;51.112;5.878;2023-04-24T08:20:13;8.81;85.90
70300;HTU21D;57704;51.112;5.878;2023-04-24T08:22:41;8.91;85.86
70300;HTU21D;57704;51.112;5.878;2023-04-24T08:25:08;8.95;85.91
70300;HTU21D;57704;51.112;5.878;2023-04-24T08:27:34;9.02;85.84
70300;HTU21D;57704;51.112;5.878;2023-04-24T08:30:04;9.10;85.58
70300;HTU21D;57704;51.112;5.878;2023-04-24T08:32:34;9.14;85.32
70300;HTU21D;57704;51.112;5.878;2023-04-24T08:35:00;9.14;85.55
70300;HTU21D;57704;51.112;5.878;2023-04-24T08:37:27;9.23;85.24
70300;HTU21D;57704;51.112;5.878;2023-04-24T08:39:53;9.23;85.53
70300;HTU21D;57704;51.112;5.878;2023-04-24T08:42:23;9.31;85.38
70300;HTU21D;57704;51.112;5.878;2023-04-24T08:44:50;9.33;85.39
70300;HTU21D;57704;51.112;5.878;2023-04-24T08:47:16;9.39;85.44
70300;HTU21D;57704;51.112;5.878;2023-04-24T08:49:45;9.49;85.24
70300;HTU21D;57704;51.112;5.878;2023-04-24T08:52:15;9.57;85.38
70300;HTU21D;57704;51.112;5.878;2023-04-24T08:54:41;9.66;85.28
70300;HTU21D;57704;51.112;5.878;2023-04-24T08:57:11;9.72;84.52
70300;HTU21D;57704;51.112;5.878;2023-04-24T08:59:40;9.69;84.97
70300;HTU21D;57704;51.112;5.878;2023-04-24T09:02:10;9.72;84.62
70300;HTU21D;57704;51.112;5.878;2023-04-24T09:04:38;9.72;84.87
70300;HTU21D;57704;51.112;5.878;2023-04-24T09:07:06;9.75;84.73
70300;HTU21D;57704;51.112;5.878;2023-04-24T09:09:34;9.83;84.80
70300;HTU21D;57704;51.112;5.878;2023-04-24T09:12:02;9.84;84.72
70300;HTU21D;57704;51.112;5.878;2023-04-24T09:14:29;9.84;84.35
70300;HTU21D;57704;51.112;5.878;2023-04-24T09:16:57;9.79;84.48
70300;HTU21D;57704;51.112;5.878;2023-04-24T09:19:23;9.77;84.45
70300;HTU21D;57704;51.112;5.878;2023-04-24T09:21:52;9.72;84.64
70300;HTU21D;57704;51.112;5.878;2023-04-24T09:24:20;9.79;84.81
70300;HTU21D;57704;51.112;5.878;2023-04-24T09:26:58;9.93;84.84
70300;HTU21D;57704;51.112;5.878;2023-04-24T09:29:27;10.07;84.87
70300;HTU21D;57704;51.112;5.878;2023-04-24T09:31:54;10.18;84.17
70300;HTU21D;57704;51.112;5.878;2023-04-24T09:34:25;10.20;84.26
70300;HTU21D;57704;51.112;5.878;2023-04-24T09:36:53;10.28;83.86
70300;HTU21D;57704;51.112;5.878;2023-04-24T09:39:19;10.27;84.04
70300;HTU21D;57704;51.112;5.878;2023-04-24T09:41:55;10.34;83.93
70300;HTU21D;57704;51.112;5.878;2023-04-24T09:44:26;10.41;83.51
70300;HTU21D;57704;51.112;5.878;2023-04-24T09:46:57;10.41;83.39
70300;HTU21D;57704;51.112;5.878;2023-04-24T09:49:26;10.40;83.31
70300;HTU21D;57704;51.112;5.878;2023-04-24T09:52:08;10.52;82.81
70300;HTU21D;57704;51.112;5.878;2023-04-24T09:54:35;10.62;83.04
70300;HTU21D;57704;51.112;5.878;2023-04-24T09:57:03;10.78;83.53
70300;HTU21D;57704;51.112;5.878;2023-04-24T09:59:30;11.00;80.92
70300;HTU21D;57704;51.112;5.878;2023-04-24T10:01:56;11.01;81.98
70300;HTU21D;57704;51.112;5.878;2023-04-24T10:04:26;11.05;82.02
70300;HTU21D;57704;51.112;5.878;2023-04-24T10:06:55;11.22;81.34
70300;HTU21D;57704;51.112;5.878;2023-04-24T10:09:23;11.42;80.49
70300;HTU21D;57704;51.112;5.878;2023-04-24T10:11:52;11.61;80.75
70300;HTU21D;57704;51.112;5.878;2023-04-24T10:14:25;11.93;80.60
70300;HTU21D;57704;51.112;5.878;2023-04-24T10:16:54;12.35;79.98
70300;HTU21D;57704;51.112;5.878;2023-04-24T10:19:20;12.70;79.06
70300;HTU21D;57704;51.112;5.878;2023-04-24T10:21:47;12.93;77.76
70300;HTU21D;57704;51.112;5.878;2023-04-24T10:24:17;12.93;75.57
70300;HTU21D;57704;51.112;5.878;2023-04-24T10:26:45;12.91;75.55
70300;HTU21D;57704;51.112;5.878;2023-04-24T10:29:13;12.94;75.53
70300;HTU21D;57704;51.112;5.878;2023-04-24T10:31:41;12.93;75.05
70300;HTU21D;57704;51.112;5.878;2023-04-24T10:34:09;12.85;74.13
70300;HTU21D;57704;51.112;5.878;2023-04-24T10:36:40;12.70;74.15
70300;HTU21D;57704;51.112;5.878;2023-04-24T10:39:11;12.63;74.62
70300;HTU21D;57704;51.112;5.878;2023-04-24T10:41:38;12.65;73.54
70300;HTU21D;57704;51.112;5.878;2023-04-24T10:44:12;12.49;74.37
70300;HTU21D;57704;51.112;5.878;2023-04-24T10:46:43;12.63;74.33
70300;HTU21D;57704;51.112;5.878;2023-04-24T10:49:10;12.65;73.43
70300;HTU21D;57704;51.112;5.878;2023-04-24T10:51:50;12.57;73.26
70300;HTU21D;57704;51.112;5.878;2023-04-24T10:59:46;12.15;74.11
70300;HTU21D;57704;51.112;5.878;2023-04-24T11:02:17;11.94;73.90
70300;HTU21D;57704;51.112;5.878;2023-04-24T11:04:44;11.76;74.27
70300;HTU21D;57704;51.112;5.878;2023-04-24T11:07:13;11.56;75.09
70300;HTU21D;57704;51.112;5.878;2023-04-24T11:09:42;11.48;75.77
70300;HTU21D;57704;51.112;5.878;2023-04-24T11:12:12;11.44;74.96
70300;HTU21D;57704;51.112;5.878;2023-04-24T11:17:35;11.16;74.03
70300;HTU21D;57704;51.112;5.878;2023-04-24T11:20:17;11.09;74.86
70300;HTU21D;57704;51.112;5.878;2023-04-24T11:22:43;11.14;74.62
70300;HTU21D;57704;51.112;5.878;2023-04-24T11:25:09;11.31;74.21
70300;HTU21D;57704;51.112;5.878;2023-04-24T11:27:42;11.44;73.44
70300;HTU21D;57704;51.112;5.878;2023-04-24T11:30:10;11.56;72.31
70300;HTU21D;57704;51.112;5.878;2023-04-24T11:32:37;11.67;72.32
70300;HTU21D;57704;51.112;5.878;2023-04-24T11:37:40;11.77;71.24
70300;HTU21D;57704;51.112;5.878;2023-04-24T11:40:11;11.94;71.16
70300;HTU21D;57704;51.112;5.878;2023-04-24T11:42:39;12.91;68.59
70300;HTU21D;57704;51.112;5.878;2023-04-24T11:45:13;13.67;67.91
70300;HTU21D;57704;51.112;5.878;2023-04-24T11:47:40;14.23;65.62
70300;HTU21D;57704;51.112;5.878;2023-04-24T11:50:11;14.25;64.83
70300;HTU21D;57704;51.112;5.878;2023-04-24T11:52:40;14.05;64.51
70300;HTU21D;57704;51.112;5.878;2023-04-24T11:55:26;13.80;64.73
70300;HTU21D;57704;51.112;5.878;2023-04-24T11:57:58;13.61;64.98
70300;HTU21D;57704;51.112;5.878;2023-04-24T12:03:05;13.21;65.50
70300;HTU21D;57704;51.112;5.878;2023-04-24T12:05:32;13.01;65.88
70300;HTU21D;57704;51.112;5.878;2023-04-24T12:07:59;12.85;65.91
70300;HTU21D;57704;51.112;5.878;2023-04-24T12:10:27;12.70;64.97
70300;HTU21D;57704;51.112;5.878;2023-04-24T12:12:56;12.55;65.85
70300;HTU21D;57704;51.112;5.878;2023-04-24T12:15:23;12.64;65.88
70300;HTU21D;57704;51.112;5.878;2023-04-24T12:17:55;12.76;65.42
70300;HTU21D;57704;51.112;5.878;2023-04-24T12:20:27;12.79;64.92
70300;HTU21D;57704;51.112;5.878;2023-04-24T12:22:55;12.72;65.38
70300;HTU21D;57704;51.112;5.878;2023-04-24T12:25:24;12.72;65.02
70300;HTU21D;57704;51.112;5.878;2023-04-24T12:30:31;12.91;65.30
70300;HTU21D;57704;51.112;5.878;2023-04-24T12:32:59;13.33;64.79
70300;HTU21D;57704;51.112;5.878;2023-04-24T12:35:28;13.79;63.43
70300;HTU21D;57704;51.112;5.878;2023-04-24T12:37:55;14.03;62.89
70300;HTU21D;57704;51.112;5.878;2023-04-24T12:40:26;14.14;62.77
70300;HTU21D;57704;51.112;5.878;2023-04-24T12:42:52;14.33;61.09
70300;HTU21D;57704;51.112;5.878;2023-04-24T12:45:19;14.29;61.83
70300;HTU21D;57704;51.112;5.878;2023-04-24T12:47:46;14.39;61.21
70300;HTU21D;57704;51.112;5.878;2023-04-24T12:50:14;14.33;61.10
70300;HTU21D;57704;51.112;5.878;2023-04-24T12:52:41;14.24;61.38
70300;HTU21D;57704;51.112;5.878;2023-04-24T12:55:08;14.11;61.85
70300;HTU21D;57704;51.112;5.878;2023-04-24T12:57:36;14.05;61.99
70300;HTU21D;57704;51.112;5.878;2023-04-24T13:00:03;14.15;61.72
70300;HTU21D;57704;51.112;5.878;2023-04-24T13:02:31;14.25;61.09
70300;HTU21D;57704;51.112;5.878;2023-04-24T13:04:58;14.12;60.94
70300;HTU21D;57704;51.112;5.878;2023-04-24T13:07:24;14.03;60.70
70300;HTU21D;57704;51.112;5.878;2023-04-24T13:09:51;13.81;60.65
70300;HTU21D;57704;51.112;5.878;2023-04-24T13:12:18;13.60;61.44
70300;HTU21D;57704;51.112;5.878;2023-04-24T13:14:45;13.47;61.76
70300;HTU21D;57704;51.112;5.878;2023-04-24T13:17:12;13.39;62.22
70300;HTU21D;57704;51.112;5.878;2023-04-24T13:19:40;13.39;62.46
70300;HTU21D;57704;51.112;5.878;2023-04-24T13:22:08;13.54;62.65
70300;HTU21D;57704;51.112;5.878;2023-04-24T13:24:34;13.66;62.21
70300;HTU21D;57704;51.112;5.878;2023-04-24T13:27:01;13.81;61.23
70300;HTU21D;57704;51.112;5.878;2023-04-24T13:29:28;13.82;61.03
70300;HTU21D;57704;51.112;5.878;2023-04-24T13:31:55;13.80;60.71
70300;HTU21D;57704;51.112;5.878;2023-04-24T13:34:23;13.82;60.63
70300;HTU21D;57704;51.112;5.878;2023-04-24T13:36:51;14.19;61.02
70300;HTU21D;57704;51.112;5.878;2023-04-24T13:39:17;14.65;59.34
70300;HTU21D;57704;51.112;5.878;2023-04-24T13:41:43;15.07;58.06
70300;HTU21D;57704;51.112;5.878;2023-04-24T13:44:10;15.42;56.92
70300;HTU21D;57704;51.112;5.878;2023-04-24T13:46:36;15.47;56.19
70300;HTU21D;57704;51.112;5.878;2023-04-24T13:49:02;15.41;56.26
70300;HTU21D;57704;51.112;5.878;2023-04-24T13:51:30;15.39;55.64
70300;HTU21D;57704;51.112;5.878;2023-04-24T13:53:56;15.25;56.44
70300;HTU21D;57704;51.112;5.878;2023-04-24T13:56:22;15.26;55.36
70300;HTU21D;57704;51.112;5.878;2023-04-24T13:58:49;15.13;55.10
70300;HTU21D;57704;51.112;5.878;2023-04-24T14:01:15;15.06;56.16
70300;HTU21D;57704;51.112;5.878;2023-04-24T14:03:42;15.28;56.64
70300;HTU21D;57704;51.112;5.878;2023-04-24T14:06:11;15.54;55.58
70300;HTU21D;57704;51.112;5.878;2023-04-24T14:08:37;15.55;55.33
70300;HTU21D;57704;51.112;5.878;2023-04-24T14:11:04;15.51;56.19
70300;HTU21D;57704;51.112;5.878;2023-04-24T14:13:30;15.65;55.88
70300;HTU21D;57704;51.112;5.878;2023-04-24T14:15:56;15.83;54.10
70300;HTU21D;57704;51.112;5.878;2023-04-24T14:18:24;15.81;53.65
70300;HTU21D;57704;51.112;5.878;2023-04-24T14:20:50;15.83;54.20
70300;HTU21D;57704;51.112;5.878;2023-04-24T14:23:16;15.95;53.17
70300;HTU21D;57704;51.112;5.878;2023-04-24T14:25:42;15.96;52.63
70300;HTU21D;57704;51.112;5.878;2023-04-24T14:28:09;15.86;52.70
70300;HTU21D;57704;51.112;5.878;2023-04-24T14:30:35;15.82;52.11
70300;HTU21D;57704;51.112;5.878;2023-04-24T14:33:03;15.76;52.68
70300;HTU21D;57704;51.112;5.878;2023-04-24T14:35:30;15.66;52.98
70300;HTU21D;57704;51.112;5.878;2023-04-24T14:37:58;15.60;52.89
70300;HTU21D;57704;51.112;5.878;2023-04-24T14:40:24;15.61;53.11
70300;HTU21D;57704;51.112;5.878;2023-04-24T14:42:51;15.68;53.10
70300;HTU21D;57704;51.112;5.878;2023-04-24T14:45:17;15.86;52.79
70300;HTU21D;57704;51.112;5.878;2023-04-24T14:47:44;15.92;51.37
70300;HTU21D;57704;51.112;5.878;2023-04-24T14:50:10;15.92;51.80
70300;HTU21D;57704;51.112;5.878;2023-04-24T14:52:38;15.85;51.38
70300;HTU21D;57704;51.112;5.878;2023-04-24T14:55:05;15.83;52.21
70300;HTU21D;57704;51.112;5.878;2023-04-24T14:57:33;15.88;51.01
70300;HTU21D;57704;51.112;5.878;2023-04-24T15:00:00;15.90;50.51
70300;HTU21D;57704;51.112;5.878;2023-04-24T15:02:26;15.93;49.81
70300;HTU21D;57704;51.112;5.878;2023-04-24T15:04:52;15.91;49.52
70300;HTU21D;57704;51.112;5.878;2023-04-24T15:07:18;15.93;49.76
70300;HTU21D;57704;51.112;5.878;2023-04-24T15:09:44;15.90;49.94
70300;HTU21D;57704;51.112;5.878;2023-04-24T15:12:12;15.86;50.03
70300;HTU21D;57704;51.112;5.878;2023-04-24T15:14:39;15.75;49.53
70300;HTU21D;57704;51.112;5.878;2023-04-24T15:17:08;15.57;49.28
70300;HTU21D;57704;51.112;5.878;2023-04-24T15:19:34;15.42;49.57
70300;HTU21D;57704;51.112;5.878;2023-04-24T15:22:00;15.34;50.13
70300;HTU21D;57704;51.112;5.878;2023-04-24T15:24:26;15.29;50.73
70300;HTU21D;57704;51.112;5.878;2023-04-24T15:26:53;15.16;51.53
70300;HTU21D;57704;51.112;5.878;2023-04-24T15:29:19;15.08;51.95
70300;HTU21D;57704;51.112;5.878;2023-04-24T15:31:45;15.14;52.43
70300;HTU21D;57704;51.112;5.878;2023-04-24T15:34:11;15.31;52.11
70300;HTU21D;57704;51.112;5.878;2023-04-24T15:36:37;15.49;51.17
70300;HTU21D;57704;51.112;5.878;2023-04-24T15:39:03;15.49;51.14
70300;HTU21D;57704;51.112;5.878;2023-04-24T15:41:29;15.51;50.97
70300;HTU21D;57704;51.112;5.878;2023-04-24T15:43:57;15.59;50.41
70300;HTU21D;57704;51.112;5.878;2023-04-24T15:46:23;15.46;50.42
70300;HTU21D;57704;51.112;5.878;2023-04-24T15:48:50;15.44;50.79
70300;HTU21D;57704;51.112;5.878;2023-04-24T15:51:16;15.47;50.57
70300;HTU21D;57704;51.112;5.878;2023-04-24T15:53:42;15.46;50.24